sensor_id;sensor_type;location;lat;lon;timestamp;P1;durP1;ratioP1;P2;durP2;ratioP2
71395;SDS011;59888;55.814;37.132;2022-12-18T00:01:29;11.07;;;5.20;;
71395;SDS011;59888;55.814;37.132;2022-12-18T00:03:57;10.98;;;4.95;;
71395;SDS011;59888;55.814;37.132;2022-12-18T00:06:23;9.73;;;4.82;;
71395;SDS011;59888;55.814;37.132;2022-12-18T00:08:51;10.57;;;4.90;;
71395;SDS011;59888;55.814;37.132;2022-12-18T00:11:18;11.63;;;5.15;;
71395;SDS011;59888;55.814;37.132;2022-12-18T00:13:46;10.35;;;5.22;;
71395;SDS011;59888;55.814;37.132;2022-12-18T00:16:13;10.85;;;5.05;;
71395;SDS011;59888;55.814;37.132;2022-12-18T00:18:41;9.35;;;5.07;;
71395;SDS011;59888;55.814;37.132;2022-12-18T00:21:08;11.27;;;5.13;;
71395;SDS011;59888;55.814;37.132;2022-12-18T00:23:36;8.25;;;4.68;;
71395;SDS011;59888;55.814;37.132;2022-12-18T00:26:10;9.35;;;4.82;;
71395;SDS011;59888;55.814;37.132;2022-12-18T00:31:07;10.18;;;4.57;;
71395;SDS011;59888;55.814;37.132;2022-12-18T00:33:38;7.18;;;4.25;;
71395;SDS011;59888;55.814;37.132;2022-12-18T00:36:05;9.35;;;4.80;;
71395;SDS011;59888;55.814;37.132;2022-12-18T00:38:34;10.85;;;4.93;;
71395;SDS011;59888;55.814;37.132;2022-12-18T00:41:01;9.27;;;4.60;;
71395;SDS011;59888;55.814;37.132;2022-12-18T00:43:27;8.15;;;4.25;;
71395;SDS011;59888;55.814;37.132;2022-12-18T00:45:53;9.27;;;4.78;;
71395;SDS011;59888;55.814;37.132;2022-12-18T00:48:19;8.70;;;4.35;;
71395;SDS011;59888;55.814;37.132;2022-12-18T00:50:47;8.63;;;4.45;;
71395;SDS011;59888;55.814;37.132;2022-12-18T00:53:14;8.48;;;4.75;;
71395;SDS011;59888;55.814;37.132;2022-12-18T00:55:40;8.90;;;4.53;;
71395;SDS011;59888;55.814;37.132;2022-12-18T00:58:07;9.40;;;4.88;;
71395;SDS011;59888;55.814;37.132;2022-12-18T01:00:34;7.70;;;4.10;;
71395;SDS011;59888;55.814;37.132;2022-12-18T01:03:01;9.07;;;4.60;;
71395;SDS011;59888;55.814;37.132;2022-12-18T01:05:27;8.77;;;4.53;;
71395;SDS011;59888;55.814;37.132;2022-12-18T01:07:53;9.93;;;4.85;;
71395;SDS011;59888;55.814;37.132;2022-12-18T01:10:20;8.68;;;4.53;;
71395;SDS011;59888;55.814;37.132;2022-12-18T01:12:46;7.82;;;4.32;;
71395;SDS011;59888;55.814;37.132;2022-12-18T01:15:12;9.52;;;4.63;;
71395;SDS011;59888;55.814;37.132;2022-12-18T01:17:39;9.30;;;4.53;;
71395;SDS011;59888;55.814;37.132;2022-12-18T01:20:05;8.68;;;4.90;;
71395;SDS011;59888;55.814;37.132;2022-12-18T01:22:33;9.32;;;4.72;;
71395;SDS011;59888;55.814;37.132;2022-12-18T01:24:59;8.98;;;4.75;;
71395;SDS011;59888;55.814;37.132;2022-12-18T01:27:25;8.95;;;4.40;;
71395;SDS011;59888;55.814;37.132;2022-12-18T01:29:51;9.82;;;4.95;;
71395;SDS011;59888;55.814;37.132;2022-12-18T01:32:18;9.73;;;4.82;;
71395;SDS011;59888;55.814;37.132;2022-12-18T01:34:44;8.43;;;4.25;;
71395;SDS011;59888;55.814;37.132;2022-12-18T01:37:10;8.30;;;4.43;;
71395;SDS011;59888;55.814;37.132;2022-12-18T01:39:36;9.60;;;5.05;;
71395;SDS011;59888;55.814;37.132;2022-12-18T01:42:09;11.10;;;4.70;;
71395;SDS011;59888;55.814;37.132;2022-12-18T01:44:53;7.80;;;4.40;;
71395;SDS011;59888;55.814;37.132;2022-12-18T01:47:27;9.13;;;4.63;;
71395;SDS011;59888;55.814;37.132;2022-12-18T01:50:17;8.10;;;4.00;;
71395;SDS011;59888;55.814;37.132;2022-12-18T01:52:46;8.73;;;4.32;;
71395;SDS011;59888;55.814;37.132;2022-12-18T01:55:43;8.52;;;4.65;;
71395;SDS011;59888;55.814;37.132;2022-12-18T01:58:13;9.18;;;4.55;;
71395;SDS011;59888;55.814;37.132;2022-12-18T02:00:40;8.15;;;4.38;;
71395;SDS011;59888;55.814;37.132;2022-12-18T02:03:07;10.00;;;4.40;;
71395;SDS011;59888;55.814;37.132;2022-12-18T02:11:12;9.70;;;4.43;;
71395;SDS011;59888;55.814;37.132;2022-12-18T02:16:23;9.57;;;4.63;;
71395;SDS011;59888;55.814;37.132;2022-12-18T02:19:00;8.77;;;4.65;;
71395;SDS011;59888;55.814;37.132;2022-12-18T02:24:33;8.13;;;4.30;;
71395;SDS011;59888;55.814;37.132;2022-12-18T02:27:06;7.32;;;3.92;;
71395;SDS011;59888;55.814;37.132;2022-12-18T02:29:37;8.75;;;4.25;;
71395;SDS011;59888;55.814;37.132;2022-12-18T02:32:08;8.85;;;4.10;;
71395;SDS011;59888;55.814;37.132;2022-12-18T02:34:37;7.65;;;3.97;;
71395;SDS011;59888;55.814;37.132;2022-12-18T02:37:11;7.40;;;3.85;;
71395;SDS011;59888;55.814;37.132;2022-12-18T02:39:40;8.02;;;3.95;;
71395;SDS011;59888;55.814;37.132;2022-12-18T02:42:10;7.97;;;3.78;;
71395;SDS011;59888;55.814;37.132;2022-12-18T02:44:46;7.45;;;3.88;;
71395;SDS011;59888;55.814;37.132;2022-12-18T02:47:18;7.35;;;4.07;;
71395;SDS011;59888;55.814;37.132;2022-12-18T02:52:37;7.63;;;3.80;;
71395;SDS011;59888;55.814;37.132;2022-12-18T02:57:50;9.05;;;3.78;;
71395;SDS011;59888;55.814;37.132;2022-12-18T03:00:37;8.00;;;3.75;;
71395;SDS011;59888;55.814;37.132;2022-12-18T03:03:14;7.22;;;3.75;;
71395;SDS011;59888;55.814;37.132;2022-12-18T03:05:56;8.00;;;3.70;;
71395;SDS011;59888;55.814;37.132;2022-12-18T03:08:28;7.57;;;4.00;;
71395;SDS011;59888;55.814;37.132;2022-12-18T03:10:59;7.68;;;3.65;;
71395;SDS011;59888;55.814;37.132;2022-12-18T03:13:33;7.72;;;4.07;;
71395;SDS011;59888;55.814;37.132;2022-12-18T03:16:03;8.60;;;4.20;;
71395;SDS011;59888;55.814;37.132;2022-12-18T03:18:34;8.45;;;3.25;;
71395;SDS011;59888;55.814;37.132;2022-12-18T03:21:06;7.60;;;3.95;;
71395;SDS011;59888;55.814;37.132;2022-12-18T03:23:38;5.45;;;3.08;;
71395;SDS011;59888;55.814;37.132;2022-12-18T03:26:10;6.50;;;3.50;;
71395;SDS011;59888;55.814;37.132;2022-12-18T03:28:42;7.68;;;4.20;;
71395;SDS011;59888;55.814;37.132;2022-12-18T03:31:14;6.90;;;3.53;;
71395;SDS011;59888;55.814;37.132;2022-12-18T03:33:47;7.40;;;4.07;;
71395;SDS011;59888;55.814;37.132;2022-12-18T03:36:22;7.80;;;4.10;;
71395;SDS011;59888;55.814;37.132;2022-12-18T03:38:50;8.02;;;3.80;;
71395;SDS011;59888;55.814;37.132;2022-12-18T03:41:19;6.35;;;3.67;;
71395;SDS011;59888;55.814;37.132;2022-12-18T03:44:15;6.72;;;3.75;;
71395;SDS011;59888;55.814;37.132;2022-12-18T03:52:52;7.95;;;3.75;;
71395;SDS011;59888;55.814;37.132;2022-12-18T03:55:30;7.72;;;3.70;;
71395;SDS011;59888;55.814;37.132;2022-12-18T03:58:02;8.95;;;4.10;;
71395;SDS011;59888;55.814;37.132;2022-12-18T04:00:43;7.65;;;3.80;;
71395;SDS011;59888;55.814;37.132;2022-12-18T04:03:10;7.30;;;3.65;;
71395;SDS011;59888;55.814;37.132;2022-12-18T04:05:43;8.00;;;4.30;;
71395;SDS011;59888;55.814;37.132;2022-12-18T04:08:09;7.65;;;3.97;;
71395;SDS011;59888;55.814;37.132;2022-12-18T04:10:40;7.55;;;3.55;;
71395;SDS011;59888;55.814;37.132;2022-12-18T04:13:06;8.23;;;4.03;;
71395;SDS011;59888;55.814;37.132;2022-12-18T04:15:34;7.88;;;3.78;;
71395;SDS011;59888;55.814;37.132;2022-12-18T04:18:03;9.07;;;4.28;;
71395;SDS011;59888;55.814;37.132;2022-12-18T04:20:37;9.15;;;4.00;;
71395;SDS011;59888;55.814;37.132;2022-12-18T04:23:03;8.35;;;3.90;;
71395;SDS011;59888;55.814;37.132;2022-12-18T04:25:29;9.05;;;4.40;;
71395;SDS011;59888;55.814;37.132;2022-12-18T04:28:04;6.97;;;3.63;;
71395;SDS011;59888;55.814;37.132;2022-12-18T04:30:31;6.82;;;3.78;;
71395;SDS011;59888;55.814;37.132;2022-12-18T04:32:58;7.15;;;3.83;;
71395;SDS011;59888;55.814;37.132;2022-12-18T04:35:23;10.43;;;4.20;;
71395;SDS011;59888;55.814;37.132;2022-12-18T04:37:49;8.30;;;3.88;;
71395;SDS011;59888;55.814;37.132;2022-12-18T04:40:15;8.05;;;3.70;;
71395;SDS011;59888;55.814;37.132;2022-12-18T04:42:44;8.57;;;4.50;;
71395;SDS011;59888;55.814;37.132;2022-12-18T04:45:10;9.05;;;4.38;;
71395;SDS011;59888;55.814;37.132;2022-12-18T04:47:36;8.32;;;3.97;;
71395;SDS011;59888;55.814;37.132;2022-12-18T04:50:02;9.35;;;3.90;;
71395;SDS011;59888;55.814;37.132;2022-12-18T04:52:28;7.80;;;4.13;;
71395;SDS011;59888;55.814;37.132;2022-12-18T04:54:57;9.25;;;4.13;;
71395;SDS011;59888;55.814;37.132;2022-12-18T04:57:22;9.23;;;4.07;;
71395;SDS011;59888;55.814;37.132;2022-12-18T04:59:48;8.27;;;3.67;;
71395;SDS011;59888;55.814;37.132;2022-12-18T05:02:14;9.70;;;4.60;;
71395;SDS011;59888;55.814;37.132;2022-12-18T05:04:40;10.48;;;4.32;;
71395;SDS011;59888;55.814;37.132;2022-12-18T05:07:06;9.15;;;4.20;;
71395;SDS011;59888;55.814;37.132;2022-12-18T05:09:31;7.95;;;4.28;;
71395;SDS011;59888;55.814;37.132;2022-12-18T05:11:57;5.60;;;3.38;;
71395;SDS011;59888;55.814;37.132;2022-12-18T05:14:23;10.50;;;4.15;;
71395;SDS011;59888;55.814;37.132;2022-12-18T05:16:49;7.28;;;3.97;;
71395;SDS011;59888;55.814;37.132;2022-12-18T05:19:15;8.13;;;4.00;;
71395;SDS011;59888;55.814;37.132;2022-12-18T05:21:41;7.93;;;4.28;;
71395;SDS011;59888;55.814;37.132;2022-12-18T05:24:06;8.60;;;4.47;;
71395;SDS011;59888;55.814;37.132;2022-12-18T05:26:32;8.38;;;4.10;;
71395;SDS011;59888;55.814;37.132;2022-12-18T05:28:58;7.15;;;3.65;;
71395;SDS011;59888;55.814;37.132;2022-12-18T05:31:24;6.85;;;3.85;;
71395;SDS011;59888;55.814;37.132;2022-12-18T05:33:50;7.78;;;4.00;;
71395;SDS011;59888;55.814;37.132;2022-12-18T05:36:16;8.68;;;3.55;;
71395;SDS011;59888;55.814;37.132;2022-12-18T05:38:41;7.43;;;3.60;;
71395;SDS011;59888;55.814;37.132;2022-12-18T05:41:08;8.77;;;4.18;;
71395;SDS011;59888;55.814;37.132;2022-12-18T05:43:35;10.48;;;4.25;;
71395;SDS011;59888;55.814;37.132;2022-12-18T05:46:06;8.02;;;4.00;;
71395;SDS011;59888;55.814;37.132;2022-12-18T05:48:33;8.77;;;4.22;;
71395;SDS011;59888;55.814;37.132;2022-12-18T05:51:09;7.72;;;3.42;;
71395;SDS011;59888;55.814;37.132;2022-12-18T05:53:37;8.00;;;3.75;;
71395;SDS011;59888;55.814;37.132;2022-12-18T05:56:04;8.95;;;4.03;;
71395;SDS011;59888;55.814;37.132;2022-12-18T05:58:31;8.18;;;4.07;;
71395;SDS011;59888;55.814;37.132;2022-12-18T06:00:57;7.78;;;3.97;;
71395;SDS011;59888;55.814;37.132;2022-12-18T06:03:31;7.90;;;3.50;;
71395;SDS011;59888;55.814;37.132;2022-12-18T06:05:56;8.93;;;3.92;;
71395;SDS011;59888;55.814;37.132;2022-12-18T06:08:22;7.10;;;3.53;;
71395;SDS011;59888;55.814;37.132;2022-12-18T06:10:51;7.82;;;3.65;;
71395;SDS011;59888;55.814;37.132;2022-12-18T06:13:19;7.88;;;4.22;;
71395;SDS011;59888;55.814;37.132;2022-12-18T06:15:45;7.80;;;3.67;;
71395;SDS011;59888;55.814;37.132;2022-12-18T06:18:11;7.82;;;3.88;;
71395;SDS011;59888;55.814;37.132;2022-12-18T06:20:37;8.25;;;4.13;;
71395;SDS011;59888;55.814;37.132;2022-12-18T06:23:05;7.60;;;3.45;;
71395;SDS011;59888;55.814;37.132;2022-12-18T06:25:31;8.10;;;4.30;;
71395;SDS011;59888;55.814;37.132;2022-12-18T06:27:58;6.57;;;3.70;;
71395;SDS011;59888;55.814;37.132;2022-12-18T06:30:24;7.45;;;3.90;;
71395;SDS011;59888;55.814;37.132;2022-12-18T06:32:50;8.88;;;4.30;;
71395;SDS011;59888;55.814;37.132;2022-12-18T06:35:16;9.40;;;3.80;;
71395;SDS011;59888;55.814;37.132;2022-12-18T06:37:42;10.48;;;3.95;;
71395;SDS011;59888;55.814;37.132;2022-12-18T06:40:08;7.65;;;3.67;;
71395;SDS011;59888;55.814;37.132;2022-12-18T06:42:34;7.72;;;3.88;;
71395;SDS011;59888;55.814;37.132;2022-12-18T06:45:00;7.15;;;3.60;;
71395;SDS011;59888;55.814;37.132;2022-12-18T06:47:25;8.48;;;4.30;;
71395;SDS011;59888;55.814;37.132;2022-12-18T06:49:51;9.65;;;4.70;;
71395;SDS011;59888;55.814;37.132;2022-12-18T06:52:17;8.30;;;3.90;;
71395;SDS011;59888;55.814;37.132;2022-12-18T06:54:43;7.68;;;3.85;;
71395;SDS011;59888;55.814;37.132;2022-12-18T06:57:08;7.22;;;3.70;;
71395;SDS011;59888;55.814;37.132;2022-12-18T06:59:34;7.40;;;3.95;;
71395;SDS011;59888;55.814;37.132;2022-12-18T07:02:00;6.95;;;3.92;;
71395;SDS011;59888;55.814;37.132;2022-12-18T07:04:29;8.60;;;3.95;;
71395;SDS011;59888;55.814;37.132;2022-12-18T07:06:55;8.43;;;4.00;;
71395;SDS011;59888;55.814;37.132;2022-12-18T07:09:21;7.95;;;4.18;;
71395;SDS011;59888;55.814;37.132;2022-12-18T07:11:47;8.38;;;4.07;;
71395;SDS011;59888;55.814;37.132;2022-12-18T07:14:13;8.55;;;3.60;;
71395;SDS011;59888;55.814;37.132;2022-12-18T07:16:38;7.05;;;3.78;;
71395;SDS011;59888;55.814;37.132;2022-12-18T07:19:04;7.10;;;3.63;;
71395;SDS011;59888;55.814;37.132;2022-12-18T07:21:30;6.85;;;3.75;;
71395;SDS011;59888;55.814;37.132;2022-12-18T07:23:56;8.25;;;3.70;;
71395;SDS011;59888;55.814;37.132;2022-12-18T07:26:21;6.70;;;3.95;;
71395;SDS011;59888;55.814;37.132;2022-12-18T07:28:48;7.45;;;3.45;;
71395;SDS011;59888;55.814;37.132;2022-12-18T07:31:16;7.93;;;3.90;;
71395;SDS011;59888;55.814;37.132;2022-12-18T07:33:43;7.60;;;3.53;;
71395;SDS011;59888;55.814;37.132;2022-12-18T07:36:10;7.32;;;3.58;;
71395;SDS011;59888;55.814;37.132;2022-12-18T07:38:36;6.80;;;3.67;;
71395;SDS011;59888;55.814;37.132;2022-12-18T07:41:07;7.32;;;3.42;;
71395;SDS011;59888;55.814;37.132;2022-12-18T07:43:35;8.15;;;3.22;;
71395;SDS011;59888;55.814;37.132;2022-12-18T07:46:01;9.48;;;3.47;;
71395;SDS011;59888;55.814;37.132;2022-12-18T07:48:31;7.78;;;3.70;;
71395;SDS011;59888;55.814;37.132;2022-12-18T07:51:00;6.70;;;3.47;;
71395;SDS011;59888;55.814;37.132;2022-12-18T07:53:26;8.15;;;3.70;;
71395;SDS011;59888;55.814;37.132;2022-12-18T07:55:59;7.38;;;3.83;;
71395;SDS011;59888;55.814;37.132;2022-12-18T07:58:28;7.70;;;3.60;;
71395;SDS011;59888;55.814;37.132;2022-12-18T08:00:54;7.53;;;3.40;;
71395;SDS011;59888;55.814;37.132;2022-12-18T08:03:27;13.18;;;5.25;;
71395;SDS011;59888;55.814;37.132;2022-12-18T08:05:57;5.40;;;3.28;;
71395;SDS011;59888;55.814;37.132;2022-12-18T08:08:24;6.82;;;3.42;;
71395;SDS011;59888;55.814;37.132;2022-12-18T08:10:49;6.32;;;3.38;;
71395;SDS011;59888;55.814;37.132;2022-12-18T08:13:15;7.75;;;3.53;;
71395;SDS011;59888;55.814;37.132;2022-12-18T08:15:41;6.28;;;3.33;;
71395;SDS011;59888;55.814;37.132;2022-12-18T08:18:10;7.05;;;3.45;;
71395;SDS011;59888;55.814;37.132;2022-12-18T08:20:36;5.80;;;3.08;;
71395;SDS011;59888;55.814;37.132;2022-12-18T08:23:02;6.63;;;3.25;;
71395;SDS011;59888;55.814;37.132;2022-12-18T08:25:28;7.35;;;3.38;;
71395;SDS011;59888;55.814;37.132;2022-12-18T08:27:53;6.53;;;3.40;;
71395;SDS011;59888;55.814;37.132;2022-12-18T08:30:21;6.93;;;3.40;;
71395;SDS011;59888;55.814;37.132;2022-12-18T08:32:50;6.55;;;3.22;;
71395;SDS011;59888;55.814;37.132;2022-12-18T08:35:18;7.85;;;3.55;;
71395;SDS011;59888;55.814;37.132;2022-12-18T08:37:44;6.82;;;2.90;;
71395;SDS011;59888;55.814;37.132;2022-12-18T08:40:09;6.60;;;3.05;;
71395;SDS011;59888;55.814;37.132;2022-12-18T08:42:35;5.97;;;3.17;;
71395;SDS011;59888;55.814;37.132;2022-12-18T08:45:20;8.18;;;3.05;;
71395;SDS011;59888;55.814;37.132;2022-12-18T08:47:46;5.93;;;3.08;;
71395;SDS011;59888;55.814;37.132;2022-12-18T08:50:12;6.70;;;3.17;;
71395;SDS011;59888;55.814;37.132;2022-12-18T08:52:37;6.30;;;3.40;;
71395;SDS011;59888;55.814;37.132;2022-12-18T08:55:03;6.82;;;3.03;;
71395;SDS011;59888;55.814;37.132;2022-12-18T08:57:30;6.35;;;2.95;;
71395;SDS011;59888;55.814;37.132;2022-12-18T08:59:56;6.03;;;3.13;;
71395;SDS011;59888;55.814;37.132;2022-12-18T09:02:21;6.30;;;3.08;;
71395;SDS011;59888;55.814;37.132;2022-12-18T09:04:47;5.65;;;2.78;;
71395;SDS011;59888;55.814;37.132;2022-12-18T09:07:13;7.70;;;3.22;;
71395;SDS011;59888;55.814;37.132;2022-12-18T09:09:39;5.53;;;2.78;;
71395;SDS011;59888;55.814;37.132;2022-12-18T09:12:05;6.20;;;2.95;;
71395;SDS011;59888;55.814;37.132;2022-12-18T09:14:31;5.55;;;2.70;;
71395;SDS011;59888;55.814;37.132;2022-12-18T09:16:57;6.70;;;3.05;;
71395;SDS011;59888;55.814;37.132;2022-12-18T09:19:22;4.72;;;2.45;;
71395;SDS011;59888;55.814;37.132;2022-12-18T09:21:48;7.32;;;3.00;;
71395;SDS011;59888;55.814;37.132;2022-12-18T09:24:15;6.35;;;2.75;;
71395;SDS011;59888;55.814;37.132;2022-12-18T09:26:41;7.13;;;3.00;;
71395;SDS011;59888;55.814;37.132;2022-12-18T09:29:07;6.00;;;3.05;;
71395;SDS011;59888;55.814;37.132;2022-12-18T09:31:33;5.53;;;2.72;;
71395;SDS011;59888;55.814;37.132;2022-12-18T09:33:59;7.07;;;2.83;;
71395;SDS011;59888;55.814;37.132;2022-12-18T09:36:24;5.35;;;2.47;;
71395;SDS011;59888;55.814;37.132;2022-12-18T09:38:50;5.80;;;2.33;;
71395;SDS011;59888;55.814;37.132;2022-12-18T09:44:39;6.38;;;2.90;;
71395;SDS011;59888;55.814;37.132;2022-12-18T09:49:44;7.20;;;2.47;;
71395;SDS011;59888;55.814;37.132;2022-12-18T09:52:14;4.93;;;2.85;;
71395;SDS011;59888;55.814;37.132;2022-12-18T09:54:50;7.57;;;3.40;;
71395;SDS011;59888;55.814;37.132;2022-12-18T09:57:20;7.03;;;2.83;;
71395;SDS011;59888;55.814;37.132;2022-12-18T09:59:53;5.63;;;2.45;;
71395;SDS011;59888;55.814;37.132;2022-12-18T10:02:23;8.15;;;3.10;;
71395;SDS011;59888;55.814;37.132;2022-12-18T10:05:02;5.90;;;2.70;;
71395;SDS011;59888;55.814;37.132;2022-12-18T10:10:31;6.28;;;2.72;;
71395;SDS011;59888;55.814;37.132;2022-12-18T10:27:15;5.88;;;2.80;;
71395;SDS011;59888;55.814;37.132;2022-12-18T10:29:47;6.70;;;2.92;;
71395;SDS011;59888;55.814;37.132;2022-12-18T10:32:17;6.20;;;2.80;;
71395;SDS011;59888;55.814;37.132;2022-12-18T10:34:46;5.95;;;3.00;;
71395;SDS011;59888;55.814;37.132;2022-12-18T10:37:17;4.75;;;2.45;;
71395;SDS011;59888;55.814;37.132;2022-12-18T10:39:45;6.28;;;2.63;;
71395;SDS011;59888;55.814;37.132;2022-12-18T10:42:17;6.60;;;3.10;;
71395;SDS011;59888;55.814;37.132;2022-12-18T10:44:44;7.05;;;3.03;;
71395;SDS011;59888;55.814;37.132;2022-12-18T10:47:16;6.07;;;3.00;;
71395;SDS011;59888;55.814;37.132;2022-12-18T10:52:19;6.32;;;2.63;;
71395;SDS011;59888;55.814;37.132;2022-12-18T10:54:54;7.72;;;3.03;;
71395;SDS011;59888;55.814;37.132;2022-12-18T10:59:55;5.13;;;2.63;;
71395;SDS011;59888;55.814;37.132;2022-12-18T11:02:35;5.40;;;2.88;;
71395;SDS011;59888;55.814;37.132;2022-12-18T11:05:22;5.45;;;2.75;;
71395;SDS011;59888;55.814;37.132;2022-12-18T11:07:56;5.32;;;3.08;;
71395;SDS011;59888;55.814;37.132;2022-12-18T11:10:28;5.60;;;2.53;;
71395;SDS011;59888;55.814;37.132;2022-12-18T11:13:14;5.38;;;2.70;;
71395;SDS011;59888;55.814;37.132;2022-12-18T11:15:42;4.25;;;2.40;;
71395;SDS011;59888;55.814;37.132;2022-12-18T11:18:15;5.43;;;2.75;;
71395;SDS011;59888;55.814;37.132;2022-12-18T11:20:42;5.05;;;2.28;;
71395;SDS011;59888;55.814;37.132;2022-12-18T11:23:11;6.28;;;2.58;;
71395;SDS011;59888;55.814;37.132;2022-12-18T11:25:39;4.88;;;2.42;;
71395;SDS011;59888;55.814;37.132;2022-12-18T11:28:08;4.93;;;2.42;;
71395;SDS011;59888;55.814;37.132;2022-12-18T11:36:39;5.28;;;2.42;;
71395;SDS011;59888;55.814;37.132;2022-12-18T11:42:17;5.60;;;2.28;;
71395;SDS011;59888;55.814;37.132;2022-12-18T11:44:50;5.78;;;2.30;;
71395;SDS011;59888;55.814;37.132;2022-12-18T11:50:12;6.32;;;2.22;;
71395;SDS011;59888;55.814;37.132;2022-12-18T11:53:00;7.20;;;2.83;;
71395;SDS011;59888;55.814;37.132;2022-12-18T11:58:12;5.63;;;2.80;;
71395;SDS011;59888;55.814;37.132;2022-12-18T12:08:45;7.57;;;3.45;;
71395;SDS011;59888;55.814;37.132;2022-12-18T12:22:41;9.82;;;3.72;;
71395;SDS011;59888;55.814;37.132;2022-12-18T12:25:19;12.87;;;3.50;;
71395;SDS011;59888;55.814;37.132;2022-12-18T12:27:58;10.25;;;3.63;;
71395;SDS011;59888;55.814;37.132;2022-12-18T12:30:52;9.98;;;3.70;;
71395;SDS011;59888;55.814;37.132;2022-12-18T12:33:40;10.13;;;4.00;;
71395;SDS011;59888;55.814;37.132;2022-12-18T12:38:53;14.77;;;4.78;;
71395;SDS011;59888;55.814;37.132;2022-12-18T12:41:23;14.05;;;5.15;;
71395;SDS011;59888;55.814;37.132;2022-12-18T12:44:15;17.10;;;5.32;;
71395;SDS011;59888;55.814;37.132;2022-12-18T12:46:55;12.88;;;5.70;;
71395;SDS011;59888;55.814;37.132;2022-12-18T12:49:25;14.05;;;5.32;;
71395;SDS011;59888;55.814;37.132;2022-12-18T12:52:04;18.33;;;5.93;;
71395;SDS011;59888;55.814;37.132;2022-12-18T12:54:33;13.95;;;6.07;;
71395;SDS011;59888;55.814;37.132;2022-12-18T12:57:04;16.75;;;6.95;;
71395;SDS011;59888;55.814;37.132;2022-12-18T13:02:51;14.43;;;5.88;;
71395;SDS011;59888;55.814;37.132;2022-12-18T13:07:52;13.07;;;5.28;;
71395;SDS011;59888;55.814;37.132;2022-12-18T13:10:24;12.00;;;4.68;;
71395;SDS011;59888;55.814;37.132;2022-12-18T13:13:03;14.75;;;4.82;;
71395;SDS011;59888;55.814;37.132;2022-12-18T13:18:30;13.90;;;5.25;;
71395;SDS011;59888;55.814;37.132;2022-12-18T13:25:57;8.90;;;4.00;;
71395;SDS011;59888;55.814;37.132;2022-12-18T13:31:11;9.05;;;4.00;;
71395;SDS011;59888;55.814;37.132;2022-12-18T13:34:20;10.80;;;3.97;;
71395;SDS011;59888;55.814;37.132;2022-12-18T13:36:55;7.82;;;3.28;;
71395;SDS011;59888;55.814;37.132;2022-12-18T13:39:30;7.60;;;3.33;;
71395;SDS011;59888;55.814;37.132;2022-12-18T13:44:33;9.20;;;3.35;;
71395;SDS011;59888;55.814;37.132;2022-12-18T13:47:02;7.18;;;3.38;;
71395;SDS011;59888;55.814;37.132;2022-12-18T13:52:01;8.30;;;3.13;;
71395;SDS011;59888;55.814;37.132;2022-12-18T13:54:37;7.43;;;3.65;;
71395;SDS011;59888;55.814;37.132;2022-12-18T13:57:23;6.47;;;3.53;;
71395;SDS011;59888;55.814;37.132;2022-12-18T13:59:50;9.10;;;4.00;;
71395;SDS011;59888;55.814;37.132;2022-12-18T14:02:17;8.82;;;3.47;;
71395;SDS011;59888;55.814;37.132;2022-12-18T14:04:47;7.43;;;3.20;;
71395;SDS011;59888;55.814;37.132;2022-12-18T14:07:18;5.72;;;3.03;;
71395;SDS011;59888;55.814;37.132;2022-12-18T14:09:50;7.65;;;3.20;;
71395;SDS011;59888;55.814;37.132;2022-12-18T14:12:22;5.05;;;2.53;;
71395;SDS011;59888;55.814;37.132;2022-12-18T14:15:31;6.55;;;2.65;;
71395;SDS011;59888;55.814;37.132;2022-12-18T14:20:31;6.15;;;2.70;;
71395;SDS011;59888;55.814;37.132;2022-12-18T14:22:58;5.45;;;2.60;;
71395;SDS011;59888;55.814;37.132;2022-12-18T14:25:29;4.88;;;2.42;;
71395;SDS011;59888;55.814;37.132;2022-12-18T14:30:39;5.30;;;2.80;;
71395;SDS011;59888;55.814;37.132;2022-12-18T14:35:38;6.30;;;2.50;;
71395;SDS011;59888;55.814;37.132;2022-12-18T14:43:31;6.60;;;2.80;;
71395;SDS011;59888;55.814;37.132;2022-12-18T14:45:58;5.00;;;2.33;;
71395;SDS011;59888;55.814;37.132;2022-12-18T14:51:19;5.82;;;2.95;;
71395;SDS011;59888;55.814;37.132;2022-12-18T14:53:48;5.32;;;2.63;;
71395;SDS011;59888;55.814;37.132;2022-12-18T14:56:29;4.85;;;2.35;;
71395;SDS011;59888;55.814;37.132;2022-12-18T15:01:31;7.10;;;3.03;;
71395;SDS011;59888;55.814;37.132;2022-12-18T15:04:00;5.43;;;2.38;;
71395;SDS011;59888;55.814;37.132;2022-12-18T15:06:31;5.68;;;3.88;;
71395;SDS011;59888;55.814;37.132;2022-12-18T15:09:04;6.10;;;2.80;;
71395;SDS011;59888;55.814;37.132;2022-12-18T15:11:46;6.70;;;2.93;;
71395;SDS011;59888;55.814;37.132;2022-12-18T15:14:22;7.25;;;3.10;;
71395;SDS011;59888;55.814;37.132;2022-12-18T15:16:53;5.68;;;2.83;;
71395;SDS011;59888;55.814;37.132;2022-12-18T15:19:20;6.28;;;2.95;;
71395;SDS011;59888;55.814;37.132;2022-12-18T15:21:47;5.78;;;2.58;;
71395;SDS011;59888;55.814;37.132;2022-12-18T15:24:17;6.28;;;2.78;;
71395;SDS011;59888;55.814;37.132;2022-12-18T15:26:48;5.43;;;2.70;;
71395;SDS011;59888;55.814;37.132;2022-12-18T15:29:20;7.93;;;3.58;;
71395;SDS011;59888;55.814;37.132;2022-12-18T15:32:00;7.65;;;3.13;;
71395;SDS011;59888;55.814;37.132;2022-12-18T15:34:28;8.50;;;3.42;;
71395;SDS011;59888;55.814;37.132;2022-12-18T15:36:55;9.85;;;3.58;;
71395;SDS011;59888;55.814;37.132;2022-12-18T15:39:21;8.95;;;3.83;;
71395;SDS011;59888;55.814;37.132;2022-12-18T15:41:47;9.15;;;3.33;;
71395;SDS011;59888;55.814;37.132;2022-12-18T15:46:57;8.88;;;3.58;;
71395;SDS011;59888;55.814;37.132;2022-12-18T15:49:23;7.72;;;3.65;;
71395;SDS011;59888;55.814;37.132;2022-12-18T15:51:53;8.07;;;3.67;;
71395;SDS011;59888;55.814;37.132;2022-12-18T15:54:22;8.77;;;3.53;;
71395;SDS011;59888;55.814;37.132;2022-12-18T15:57:08;8.45;;;3.53;;
71395;SDS011;59888;55.814;37.132;2022-12-18T15:59:52;8.88;;;3.40;;
71395;SDS011;59888;55.814;37.132;2022-12-18T16:02:20;8.95;;;3.75;;
71395;SDS011;59888;55.814;37.132;2022-12-18T16:04:48;7.63;;;3.40;;
71395;SDS011;59888;55.814;37.132;2022-12-18T16:07:15;7.28;;;3.47;;
71395;SDS011;59888;55.814;37.132;2022-12-18T16:09:41;8.43;;;3.40;;
71395;SDS011;59888;55.814;37.132;2022-12-18T16:12:11;8.75;;;3.97;;
71395;SDS011;59888;55.814;37.132;2022-12-18T16:14:44;8.63;;;3.50;;
71395;SDS011;59888;55.814;37.132;2022-12-18T16:17:11;9.25;;;3.88;;
71395;SDS011;59888;55.814;37.132;2022-12-18T16:19:38;10.20;;;3.90;;
71395;SDS011;59888;55.814;37.132;2022-12-18T16:22:04;8.00;;;3.90;;
71395;SDS011;59888;55.814;37.132;2022-12-18T16:24:31;9.48;;;3.42;;
71395;SDS011;59888;55.814;37.132;2022-12-18T16:26:59;9.27;;;3.60;;
71395;SDS011;59888;55.814;37.132;2022-12-18T16:29:25;9.55;;;4.30;;
71395;SDS011;59888;55.814;37.132;2022-12-18T16:31:56;8.23;;;3.60;;
71395;SDS011;59888;55.814;37.132;2022-12-18T16:34:24;7.95;;;3.92;;
71395;SDS011;59888;55.814;37.132;2022-12-18T16:36:57;8.60;;;4.05;;
71395;SDS011;59888;55.814;37.132;2022-12-18T16:39:24;10.68;;;4.00;;
71395;SDS011;59888;55.814;37.132;2022-12-18T16:41:50;7.50;;;3.50;;
71395;SDS011;59888;55.814;37.132;2022-12-18T16:44:17;7.60;;;3.58;;
71395;SDS011;59888;55.814;37.132;2022-12-18T16:46:43;9.02;;;3.95;;
71395;SDS011;59888;55.814;37.132;2022-12-18T16:49:11;8.68;;;3.65;;
71395;SDS011;59888;55.814;37.132;2022-12-18T16:51:40;9.95;;;4.22;;
71395;SDS011;59888;55.814;37.132;2022-12-18T16:54:06;8.15;;;4.25;;
71395;SDS011;59888;55.814;37.132;2022-12-18T16:56:33;9.30;;;3.75;;
71395;SDS011;59888;55.814;37.132;2022-12-18T16:59:00;8.88;;;4.10;;
71395;SDS011;59888;55.814;37.132;2022-12-18T17:01:28;9.45;;;4.60;;